Time;durP1;ratioP1;P1;durP2;ratioP2;P2;SDS_P1;SDS_P2;PMS_P1;PMS_P2;Temp;Humidity;BMP_temperature;BMP_pressure;BME280_temperature;BME280_humidity;BME280_pressure;Samples;Min_cycle;Max_cycle;Signal;HPM_P1;HPM_P2
2022/10/28 00:01:04;;;;;;;5.03;2.65;;;12.20;99.90;;;;;;1942386;73;21118;-72
2022/10/28 00:03:31;;;;;;;7.17;2.40;;;12.20;99.90;;;;;;1946148;72;21104;-72
2022/10/28 00:06:10;;;;;;;9.55;3.65;;;12.20;99.90;;;;;;1951463;73;21154;-72
2022/10/28 00:08:38;;;;;;;4.05;2.85;;;12.10;99.90;;;;;;1949335;73;21035;-70
2022/10/28 00:11:10;;;;;;;8.40;2.90;;;12.20;99.90;;;;;;1936047;72;21509;-70
2022/10/28 00:13:37;;;;;;;5.47;2.47;;;12.10;99.90;;;;;;1950852;73;21128;-72
2022/10/28 00:16:13;;;;;;;9.53;3.17;;;12.10;99.90;;;;;;1952927;72;21214;-72
2022/10/28 00:18:40;;;;;;;10.75;2.85;;;12.20;99.90;;;;;;1957581;73;21068;-72
2022/10/28 00:21:10;;;;;;;6.17;2.98;;;12.20;99.90;;;;;;1957665;73;21132;-70
2022/10/28 00:23:37;;;;;;;5.10;3.10;;;12.20;99.90;;;;;;1957163;73;21134;-72
2022/10/28 00:26:15;;;;;;;9.03;3.15;;;12.10;99.90;;;;;;1956885;73;21149;-73
2022/10/28 00:28:44;;;;;;;6.95;2.70;;;12.10;99.90;;;;;;1950722;72;21211;-72
2022/10/28 00:31:12;;;;;;;6.55;3.17;;;12.10;99.90;;;;;;1958078;72;21415;-71
2022/10/28 00:33:40;;;;;;;7.55;2.45;;;12.10;99.90;;;;;;1956793;73;21139;-72
2022/10/28 00:36:18;;;;;;;11.38;2.47;;;12.10;99.90;;;;;;1956918;73;21543;-72
2022/10/28 00:38:47;;;;;;;6.85;2.80;;;12.10;99.90;;;;;;1958403;73;21128;-70
2022/10/28 00:41:18;;;;;;;8.33;2.92;;;12.00;99.90;;;;;;1957264;73;21074;-72
2022/10/28 00:43:48;;;;;;;9.03;2.75;;;11.90;99.90;;;;;;1956045;73;21182;-72
2022/10/28 00:46:21;;;;;;;9.43;2.70;;;11.90;99.90;;;;;;1956757;73;21035;-69
2022/10/28 00:48:50;;;;;;;7.60;2.75;;;11.90;99.90;;;;;;1957917;73;21124;-69
2022/10/28 00:51:18;;;;;;;3.60;2.37;;;11.80;99.90;;;;;;1958375;73;21074;-70
2022/10/28 00:53:47;;;;;;;6.55;2.72;;;11.80;99.90;;;;;;1957943;73;21219;-70
2022/10/28 00:56:14;;;;;;;7.75;2.98;;;11.80;99.90;;;;;;1956169;73;21082;-69
2022/10/28 00:58:41;;;;;;;5.60;2.30;;;11.80;99.90;;;;;;1958375;73;21286;-70
2022/10/28 01:01:08;;;;;;;11.60;2.75;;;11.80;99.90;;;;;;1958576;72;21824;-71
2022/10/28 01:03:36;;;;;;;7.70;3.25;;;11.70;99.90;;;;;;1957814;73;21062;-71
2022/10/28 01:06:04;;;;;;;5.20;2.58;;;11.80;99.90;;;;;;1958583;73;21149;-72
2022/10/28 01:08:31;;;;;;;7.78;2.77;;;11.70;99.90;;;;;;1958643;72;21470;-71
2022/10/28 01:11:19;;;;;;;7.72;2.62;;;11.70;99.90;;;;;;1957629;73;21058;-71
2022/10/28 01:14:01;;;;;;;10.53;2.67;;;11.70;99.90;;;;;;1956649;72;21180;-72
2022/10/28 01:16:47;;;;;;;8.58;3.55;;;11.70;99.90;;;;;;1956587;73;21462;-72
2022/10/28 01:19:34;;;;;;;9.45;2.90;;;11.70;99.90;;;;;;1869923;74;21091;-72
2022/10/28 01:22:13;;;;;;;7.75;3.22;;;11.70;99.90;;;;;;1956474;73;21059;-72
2022/10/28 01:24:56;;;;;;;8.98;3.27;;;11.70;99.90;;;;;;1957858;72;21062;-73
2022/10/28 01:27:26;;;;;;;8.88;2.90;;;11.70;99.90;;;;;;1953244;73;21067;-72
2022/10/28 01:30:18;;;;;;;7.25;3.10;;;11.70;99.90;;;;;;1955686;73;21132;-72
2022/10/28 01:33:14;;;;;;;7.87;3.45;;;11.70;99.90;;;;;;1959141;73;21451;-71
2022/10/28 01:35:51;;;;;;;9.73;2.58;;;11.70;99.90;;;;;;1955770;73;21109;-70
2022/10/28 01:38:51;;;;;;;4.42;2.52;;;11.70;99.90;;;;;;1936051;73;21116;-72
2022/10/28 01:41:33;;;;;;;14.78;3.67;;;11.70;99.90;;;;;;1958836;72;21439;-71
2022/10/28 01:44:06;;;;;;;9.75;3.40;;;11.80;99.90;;;;;;1949433;73;21206;-71
2022/10/28 01:46:49;;;;;;;11.63;3.40;;;11.70;99.90;;;;;;1957081;72;21441;-73
2022/10/28 01:49:22;;;;;;;7.50;3.50;;;11.80;99.90;;;;;;1957990;73;21036;-71
2022/10/28 01:51:52;;;;;;;8.65;3.62;;;11.80;99.90;;;;;;1958704;72;21466;-71
2022/10/28 01:54:22;;;;;;;15.10;3.58;;;11.70;99.90;;;;;;1958311;73;21082;-71
2022/10/28 01:56:49;;;;;;;11.23;3.63;;;11.70;99.90;;;;;;1957554;72;21066;-71
2022/10/28 01:59:19;;;;;;;7.10;3.05;;;11.60;99.90;;;;;;1957669;73;21491;-70
2022/10/28 02:01:47;;;;;;;7.55;3.15;;;11.60;99.90;;;;;;1956869;73;21116;-72
2022/10/28 02:04:14;;;;;;;6.42;2.72;;;11.60;99.90;;;;;;1957364;73;21258;-70
2022/10/28 02:06:42;;;;;;;5.30;2.83;;;11.60;99.90;;;;;;1922238;73;21113;-71
2022/10/28 02:09:21;;;;;;;5.20;2.77;;;11.60;99.90;;;;;;1958400;73;21074;-71
2022/10/28 02:12:03;;;;;;;3.70;2.27;;;11.50;99.90;;;;;;1946976;73;21062;-71
2022/10/28 02:14:37;;;;;;;9.10;2.40;;;11.50;99.90;;;;;;1951559;73;21145;-71
2022/10/28 02:17:35;;;;;;;6.62;2.67;;;11.50;99.90;;;;;;1958686;73;21078;-70
2022/10/28 02:23:01;;;;;;;7.28;3.58;;;11.40;99.90;;;;;;1934503;73;21127;-70
2022/10/28 02:25:34;;;;;;;7.70;2.85;;;11.40;99.90;;;;;;1945220;72;21136;-71
2022/10/28 02:28:07;;;;;;;7.25;2.85;;;11.40;99.90;;;;;;1928798;73;21136;-71
2022/10/28 02:30:43;;;;;;;3.37;2.17;;;11.30;99.90;;;;;;1952147;72;21066;-70
2022/10/28 02:33:12;;;;;;;7.90;2.98;;;11.30;99.90;;;;;;1954064;72;21121;-70
2022/10/28 02:35:48;;;;;;;5.62;2.50;;;11.20;99.90;;;;;;1944167;73;21272;-71
2022/10/28 02:38:19;;;;;;;10.38;2.75;;;11.20;99.90;;;;;;1944775;71;21141;-70
2022/10/28 02:40:49;;;;;;;6.70;3.42;;;11.20;99.90;;;;;;1949618;73;21470;-71
2022/10/28 02:43:16;;;;;;;4.85;2.62;;;11.20;99.90;;;;;;1947346;72;21496;-70
2022/10/28 02:45:46;;;;;;;8.28;3.35;;;11.20;99.90;;;;;;1953369;72;21155;-73
2022/10/28 02:48:38;;;;;;;9.03;2.92;;;11.20;99.90;;;;;;1955883;73;21138;-73
2022/10/28 02:51:11;;;;;;;7.70;3.55;;;11.20;99.90;;;;;;1922420;73;21132;-71
2022/10/28 02:53:53;;;;;;;6.47;3.33;;;11.20;99.90;;;;;;1923698;74;21189;-72
2022/10/28 02:56:21;;;;;;;8.88;3.30;;;11.20;99.90;;;;;;1888056;73;21433;-71
2022/10/28 02:58:48;;;;;;;8.88;3.02;;;11.10;99.90;;;;;;1924078;73;21131;-70
2022/10/28 03:01:16;;;;;;;11.73;3.10;;;11.10;99.90;;;;;;1929203;73;21455;-71
2022/10/28 03:03:43;;;;;;;7.55;3.12;;;11.10;99.90;;;;;;1932104;73;21033;-72
2022/10/28 03:06:11;;;;;;;6.85;3.27;;;11.00;99.90;;;;;;1926275;73;21042;-72
2022/10/28 03:08:38;;;;;;;8.35;3.20;;;11.10;99.90;;;;;;1924467;73;21523;-71
2022/10/28 03:11:05;;;;;;;8.15;3.00;;;11.10;99.90;;;;;;1925212;73;21069;-70
2022/10/28 03:13:32;;;;;;;9.75;3.67;;;11.10;99.90;;;;;;1928158;73;21192;-71
2022/10/28 03:16:00;;;;;;;8.40;3.37;;;11.10;99.90;;;;;;1922036;73;21444;-72
2022/10/28 03:18:27;;;;;;;4.83;3.15;;;11.10;99.90;;;;;;1922027;73;21185;-72
2022/10/28 03:20:54;;;;;;;8.55;3.55;;;11.10;99.90;;;;;;1921733;73;21172;-71
2022/10/28 03:23:22;;;;;;;9.45;3.75;;;11.10;99.90;;;;;;1922778;73;21066;-72
2022/10/28 03:25:49;;;;;;;7.45;3.10;;;11.10;99.90;;;;;;1919362;73;21097;-71
2022/10/28 03:28:16;;;;;;;10.03;3.37;;;11.10;99.90;;;;;;1930410;73;21360;-71
2022/10/28 03:30:44;;;;;;;8.73;3.72;;;11.10;99.90;;;;;;1931099;73;21119;-71
2022/10/28 03:33:11;;;;;;;5.75;3.20;;;11.10;99.90;;;;;;1928089;73;21136;-72
2022/10/28 03:35:38;;;;;;;6.20;3.00;;;11.10;99.90;;;;;;1928378;73;21060;-72
2022/10/28 03:38:06;;;;;;;12.98;3.98;;;11.10;99.90;;;;;;1926594;73;21034;-72
2022/10/28 03:40:33;;;;;;;6.50;2.75;;;11.10;99.90;;;;;;1921480;73;21073;-75
2022/10/28 03:43:01;;;;;;;13.05;3.50;;;11.20;99.90;;;;;;1930067;73;21081;-74
2022/10/28 03:45:28;;;;;;;4.62;2.80;;;11.20;99.90;;;;;;1918044;73;21039;-75
2022/10/28 03:47:55;;;;;;;6.58;3.47;;;11.20;99.90;;;;;;1923396;73;21077;-74
2022/10/28 03:50:24;;;;;;;14.95;4.47;;;11.20;99.90;;;;;;1926267;73;21067;-74
2022/10/28 03:52:51;;;;;;;14.23;3.62;;;11.30;99.90;;;;;;1926996;73;21074;-75
2022/10/28 03:55:18;;;;;;;5.30;2.95;;;11.30;99.90;;;;;;1921945;73;21058;-73
2022/10/28 03:57:46;;;;;;;6.58;3.55;;;11.30;99.90;;;;;;1922982;73;21062;-74
2022/10/28 04:00:14;;;;;;;7.90;3.27;;;11.20;99.90;;;;;;1925424;73;21069;-74
2022/10/28 04:02:42;;;;;;;12.50;3.17;;;11.20;99.90;;;;;;1926305;73;21043;-74
2022/10/28 04:05:09;;;;;;;8.80;3.65;;;11.40;99.90;;;;;;1918578;73;21249;-74
2022/10/28 04:07:36;;;;;;;5.85;2.80;;;11.40;99.90;;;;;;1920930;73;21516;-74
2022/10/28 04:10:04;;;;;;;13.30;3.30;;;11.40;99.90;;;;;;1930505;73;21138;-73
2022/10/28 04:12:31;;;;;;;12.45;4.28;;;11.40;99.90;;;;;;1919355;73;21073;-74
2022/10/28 04:14:58;;;;;;;6.47;3.42;;;11.40;99.90;;;;;;1923369;73;21008;-73
2022/10/28 04:17:26;;;;;;;5.17;3.00;;;11.50;99.90;;;;;;1923596;73;21218;-73
2022/10/28 04:19:53;;;;;;;7.87;2.50;;;11.40;99.90;;;;;;1936692;73;21137;-72
2022/10/28 04:22:20;;;;;;;6.17;2.98;;;11.40;99.90;;;;;;1925213;73;21454;-72
2022/10/28 04:24:48;;;;;;;7.08;3.27;;;11.40;99.90;;;;;;1911004;73;21054;-72
2022/10/28 04:27:15;;;;;;;14.58;3.98;;;11.50;99.90;;;;;;1928573;73;21449;-73
2022/10/28 04:29:42;;;;;;;13.38;3.83;;;11.40;99.90;;;;;;1922372;73;21310;-72
2022/10/28 04:32:10;;;;;;;5.97;3.20;;;11.40;99.90;;;;;;1920663;73;21535;-72
2022/10/28 04:34:37;;;;;;;11.38;3.10;;;11.40;99.90;;;;;;1925164;74;21431;-73
2022/10/28 04:37:04;;;;;;;12.35;4.08;;;11.40;99.90;;;;;;1923995;73;21257;-73
2022/10/28 04:39:31;;;;;;;6.30;3.10;;;11.40;99.90;;;;;;1921097;73;21434;-73
2022/10/28 04:41:59;;;;;;;7.53;3.33;;;11.40;99.90;;;;;;1930060;74;21130;-73
2022/10/28 04:44:26;;;;;;;11.63;4.08;;;11.30;99.90;;;;;;1929332;73;21148;-74
2022/10/28 04:46:55;;;;;;;10.08;3.42;;;11.30;99.90;;;;;;1924217;73;21124;-74
2022/10/28 04:49:23;;;;;;;8.93;3.95;;;11.30;99.90;;;;;;1915704;73;21141;-73
2022/10/28 04:51:50;;;;;;;14.75;3.22;;;11.40;99.90;;;;;;1922185;74;21457;-74
2022/10/28 04:54:17;;;;;;;14.93;3.75;;;11.40;99.90;;;;;;1927048;73;21070;-73
2022/10/28 04:56:45;;;;;;;12.73;3.75;;;11.50;99.90;;;;;;1929378;73;21135;-74
2022/10/28 04:59:12;;;;;;;10.20;3.55;;;11.60;99.90;;;;;;1922100;73;21173;-75
2022/10/28 05:01:39;;;;;;;11.90;3.95;;;11.70;99.90;;;;;;1918893;74;21053;-73
2022/10/28 05:04:07;;;;;;;14.25;3.60;;;11.70;99.90;;;;;;1918783;73;21434;-74
2022/10/28 05:06:34;;;;;;;14.28;4.30;;;11.70;99.90;;;;;;1916509;74;21609;-74
2022/10/28 05:09:01;;;;;;;11.45;3.92;;;11.70;99.90;;;;;;1921536;73;21127;-74
2022/10/28 05:11:29;;;;;;;16.93;4.47;;;11.70;99.90;;;;;;1920419;73;21492;-73
2022/10/28 05:13:56;;;;;;;7.50;3.80;;;11.80;99.90;;;;;;1910692;73;21265;-74
2022/10/28 05:16:23;;;;;;;13.25;3.80;;;11.70;99.90;;;;;;1918707;73;21515;-75
2022/10/28 05:18:50;;;;;;;17.12;4.72;;;11.80;99.90;;;;;;1919219;73;21061;-74
2022/10/28 05:21:18;;;;;;;22.15;5.03;;;11.70;99.90;;;;;;1923224;73;21470;-74
2022/10/28 05:23:46;;;;;;;13.80;3.85;;;11.60;99.90;;;;;;1921403;73;21218;-73
2022/10/28 05:26:13;;;;;;;14.20;3.75;;;11.70;99.90;;;;;;1934123;73;21044;-73
2022/10/28 05:28:42;;;;;;;17.77;3.75;;;11.80;99.90;;;;;;1918663;73;21128;-77
2022/10/28 05:31:09;;;;;;;11.75;3.83;;;11.70;99.90;;;;;;1918698;74;21126;-74
2022/10/28 05:33:37;;;;;;;12.68;3.20;;;11.70;99.90;;;;;;1927195;73;21140;-74
2022/10/28 05:36:04;;;;;;;9.53;3.25;;;11.70;99.90;;;;;;1924076;73;21463;-73
2022/10/28 05:38:31;;;;;;;17.82;3.92;;;11.70;99.90;;;;;;1926576;73;21035;-72
2022/10/28 05:40:59;;;;;;;9.75;4.20;;;11.70;99.90;;;;;;1936401;73;21171;-72
2022/10/28 05:43:26;;;;;;;17.42;4.20;;;11.60;99.90;;;;;;1919525;73;21053;-71
2022/10/28 05:45:54;;;;;;;12.00;4.33;;;11.60;99.90;;;;;;1931936;73;21039;-72
2022/10/28 05:48:22;;;;;;;16.52;4.50;;;11.60;99.90;;;;;;1924200;73;21157;-71
2022/10/28 05:50:49;;;;;;;11.73;4.35;;;11.70;99.90;;;;;;1927213;73;21031;-71
2022/10/28 05:53:16;;;;;;;7.92;3.92;;;11.80;99.90;;;;;;1924199;73;21470;-73
2022/10/28 05:55:44;;;;;;;8.03;4.03;;;11.70;99.90;;;;;;1921488;73;21055;-79
2022/10/28 05:58:11;;;;;;;12.30;4.17;;;11.70;99.90;;;;;;1920386;73;21560;-72
2022/10/28 06:00:38;;;;;;;12.70;4.80;;;11.70;99.90;;;;;;1921074;73;21079;-74
2022/10/28 06:03:10;;;;;;;7.92;4.22;;;11.80;99.90;;;;;;1921442;73;21123;-79
2022/10/28 06:05:39;;;;;;;12.13;4.28;;;11.70;99.90;;;;;;1923881;73;21483;-74
2022/10/28 06:08:07;;;;;;;11.12;3.98;;;11.70;99.90;;;;;;1929959;73;21086;-76
2022/10/28 06:10:34;;;;;;;18.82;4.58;;;11.70;99.90;;;;;;1929735;73;21168;-75
2022/10/28 06:13:01;;;;;;;9.60;4.20;;;11.70;99.90;;;;;;1920919;73;21458;-75
2022/10/28 06:15:29;;;;;;;19.32;4.60;;;11.80;99.90;;;;;;1922820;73;21069;-74
2022/10/28 06:17:56;;;;;;;10.45;4.33;;;11.80;99.90;;;;;;1927319;73;21450;-74
2022/10/28 06:20:25;;;;;;;7.92;4.00;;;11.80;99.90;;;;;;1923043;73;21126;-75
2022/10/28 06:22:53;;;;;;;14.18;4.75;;;11.80;99.90;;;;;;1926255;73;21135;-75
2022/10/28 06:25:24;;;;;;;12.23;4.60;;;11.70;99.90;;;;;;1925419;73;21126;-75
2022/10/28 06:27:58;;;;;;;8.53;4.50;;;11.60;99.90;;;;;;1929341;73;21144;-75
2022/10/28 06:30:26;;;;;;;12.00;4.50;;;11.60;99.90;;;;;;1916097;73;21454;-75
2022/10/28 06:32:55;;;;;;;12.30;4.28;;;11.60;99.90;;;;;;1923581;73;21144;-75
2022/10/28 06:35:22;;;;;;;22.30;5.03;;;11.60;99.90;;;;;;1914729;73;21442;-74
2022/10/28 06:37:55;;;;;;;10.85;4.47;;;11.70;99.90;;;;;;1931312;73;21132;-74
2022/10/28 06:40:24;;;;;;;20.05;4.60;;;11.80;99.90;;;;;;1927104;73;21447;-74
2022/10/28 06:43:02;;;;;;;14.33;4.30;;;11.60;99.90;;;;;;1939504;73;21179;-75
2022/10/28 06:45:33;;;;;;;15.35;4.53;;;11.50;99.90;;;;;;1926516;73;21066;-74
2022/10/28 06:48:02;;;;;;;19.55;4.55;;;11.60;99.90;;;;;;1925342;73;21101;-74
2022/10/28 06:50:30;;;;;;;19.75;4.30;;;11.60;99.90;;;;;;1925375;73;21441;-73
2022/10/28 06:52:57;;;;;;;12.00;4.45;;;11.60;99.90;;;;;;1924140;73;21042;-73
2022/10/28 06:55:25;;;;;;;12.95;5.08;;;11.60;99.90;;;;;;1930423;73;21067;-73
2022/10/28 06:57:52;;;;;;;11.83;4.40;;;11.70;99.90;;;;;;1919666;73;21131;-74
2022/10/28 07:00:20;;;;;;;13.10;4.87;;;11.90;99.90;;;;;;1927827;73;21217;-73
2022/10/28 07:02:52;;;;;;;9.20;4.35;;;11.90;99.90;;;;;;1925974;73;21034;-73
2022/10/28 07:05:19;;;;;;;14.43;4.35;;;12.00;99.90;;;;;;1916488;73;21442;-71
2022/10/28 07:07:47;;;;;;;12.35;4.80;;;11.90;99.90;;;;;;1927751;73;21105;-72
2022/10/28 07:10:14;;;;;;;12.73;4.10;;;11.90;99.90;;;;;;1922270;73;22523;-73
2022/10/28 07:12:41;;;;;;;29.95;4.65;;;12.00;99.90;;;;;;1923628;73;21136;-76
2022/10/28 07:15:09;;;;;;;20.12;4.53;;;12.10;99.90;;;;;;1917155;73;21253;-73
2022/10/28 07:17:37;;;;;;;17.07;4.20;;;12.10;99.90;;;;;;1924768;73;21469;-74
2022/10/28 07:20:04;;;;;;;21.77;4.00;;;12.00;99.90;;;;;;1924129;73;21392;-74
2022/10/28 07:22:32;;;;;;;14.33;4.50;;;12.10;99.90;;;;;;1915100;73;21431;-73
2022/10/28 07:24:59;;;;;;;10.28;4.17;;;12.20;99.90;;;;;;1919788;73;21124;-72
2022/10/28 07:27:26;;;;;;;11.75;4.67;;;12.20;99.90;;;;;;1920037;73;21057;-71
2022/10/28 07:29:54;;;;;;;18.77;4.53;;;12.30;99.90;;;;;;1927433;73;21078;-72
2022/10/28 07:32:21;;;;;;;22.15;4.50;;;12.40;99.90;;;;;;1931864;73;21057;-72
2022/10/28 07:34:48;;;;;;;15.45;4.15;;;12.50;99.90;;;;;;1925488;73;21034;-72
2022/10/28 07:37:16;;;;;;;17.75;4.90;;;12.60;99.90;;;;;;1922130;73;21131;-73
2022/10/28 07:39:43;;;;;;;18.60;4.85;;;12.70;99.90;;;;;;1926248;73;21428;-73
2022/10/28 07:42:10;;;;;;;19.77;4.65;;;12.80;99.90;;;;;;1923635;73;21145;-73
2022/10/28 07:44:39;;;;;;;13.93;5.17;;;12.90;99.90;;;;;;1916320;73;21129;-72
2022/10/28 07:47:06;;;;;;;14.63;4.62;;;12.90;99.90;;;;;;1920333;73;21180;-72
2022/10/28 07:49:33;;;;;;;28.83;11.30;;;13.00;99.90;;;;;;1920390;73;21262;-72
2022/10/28 07:52:01;;;;;;;21.90;5.28;;;13.20;99.90;;;;;;1912368;73;21058;-73
2022/10/28 07:54:29;;;;;;;9.90;4.20;;;13.30;99.90;;;;;;1929688;73;21165;-72
2022/10/28 07:56:56;;;;;;;15.95;3.72;;;13.40;99.90;;;;;;1931338;73;21517;-73
2022/10/28 07:59:27;;;;;;;8.98;3.62;;;13.50;99.90;;;;;;1925321;73;21136;-72
2022/10/28 08:01:54;;;;;;;12.05;4.37;;;13.80;99.90;;;;;;1923170;73;21417;-71
2022/10/28 08:04:21;;;;;;;7.45;3.27;;;13.80;99.90;;;;;;1918277;73;21221;-72
2022/10/28 08:06:49;;;;;;;16.95;3.67;;;13.90;99.90;;;;;;1923727;73;21063;-72
2022/10/28 08:09:16;;;;;;;10.03;3.52;;;13.80;99.90;;;;;;1915773;73;21091;-71
2022/10/28 08:11:43;;;;;;;9.00;3.72;;;13.70;99.90;;;;;;1925493;73;21054;-75
2022/10/28 08:14:11;;;;;;;14.35;3.60;;;13.60;99.90;;;;;;1919582;73;21450;-73
2022/10/28 08:16:38;;;;;;;13.48;3.87;;;13.70;99.90;;;;;;1923352;73;21103;-74
2022/10/28 08:19:05;;;;;;;23.10;4.78;;;13.90;99.90;;;;;;1914070;73;21045;-74
2022/10/28 08:21:34;;;;;;;19.10;3.72;;;14.10;99.90;;;;;;1926731;73;21044;-73
2022/10/28 08:24:01;;;;;;;12.47;3.72;;;14.20;99.90;;;;;;1923247;73;21441;-75
2022/10/28 08:26:29;;;;;;;6.08;3.62;;;14.30;99.90;;;;;;1931275;73;21127;-75
2022/10/28 08:28:57;;;;;;;10.30;3.98;;;14.30;99.90;;;;;;1923226;73;21071;-75
2022/10/28 08:31:24;;;;;;;10.72;3.95;;;14.30;99.90;;;;;;1895293;74;21151;-75
2022/10/28 08:33:51;;;;;;;13.70;4.78;;;14.30;99.90;;;;;;1920799;73;21542;-74
2022/10/28 08:36:19;;;;;;;13.98;4.75;;;14.30;99.90;;;;;;1920049;73;21058;-74
2022/10/28 08:38:46;;;;;;;10.18;4.80;;;14.30;99.90;;;;;;1916673;73;21395;-74
2022/10/28 08:41:25;;;;;;;11.40;4.62;;;14.30;99.90;;;;;;1923232;73;21067;-75
2022/10/28 08:44:24;;;;;;;18.65;5.90;;;14.30;99.90;;;;;;1922067;73;21482;-74
2022/10/28 08:47:13;;;;;;;13.45;5.65;;;14.10;99.90;;;;;;1928612;73;21513;-76
2022/10/28 08:49:41;;;;;;;12.85;4.60;;;14.10;99.90;;;;;;1931933;73;21074;-75
2022/10/28 08:52:20;;;;;;;19.07;5.50;;;14.10;99.90;;;;;;1925406;73;21555;-77
2022/10/28 08:54:57;;;;;;;12.45;4.65;;;14.10;99.90;;;;;;1923269;73;21046;-74
2022/10/28 08:57:38;;;;;;;7.95;3.98;;;14.30;99.90;;;;;;1912789;73;21047;-73
2022/10/28 09:00:07;;;;;;;11.75;4.70;;;14.40;99.90;;;;;;1919681;74;21476;-73
2022/10/28 09:02:44;;;;;;;14.68;5.30;;;14.40;99.90;;;;;;1927917;73;21565;-74
2022/10/28 09:05:21;;;;;;;16.67;5.10;;;14.50;99.90;;;;;;1921041;73;21032;-73
2022/10/28 09:07:48;;;;;;;12.00;4.28;;;14.50;99.90;;;;;;1930025;73;21474;-72
2022/10/28 09:10:16;;;;;;;12.05;4.83;;;14.60;99.90;;;;;;1922119;73;21373;-72
2022/10/28 09:12:46;;;;;;;19.70;4.47;;;14.60;99.90;;;;;;1920367;73;21159;-72
2022/10/28 09:15:17;;;;;;;19.85;5.08;;;14.50;99.90;;;;;;1915352;73;21023;-72
2022/10/28 09:17:55;;;;;;;8.88;4.30;;;14.60;99.90;;;;;;1926189;73;21123;-72
2022/10/28 09:20:50;;;;;;;12.93;4.12;;;14.70;99.90;;;;;;1917517;73;21034;-74
2022/10/28 09:23:23;;;;;;;13.75;4.28;;;14.70;99.90;;;;;;1922088;73;21103;-74
2022/10/28 09:26:15;;;;;;;12.45;5.30;;;14.90;99.90;;;;;;1930341;73;21053;-73
2022/10/28 09:29:01;;;;;;;11.03;4.50;;;15.00;99.90;;;;;;1932786;73;21066;-73
2022/10/28 09:31:42;;;;;;;12.93;4.50;;;14.90;99.90;;;;;;1933080;73;21069;-75
2022/10/28 09:34:13;;;;;;;15.30;3.37;;;15.00;99.90;;;;;;1928482;73;21067;-74
2022/10/28 09:36:43;;;;;;;8.88;3.40;;;15.20;99.90;;;;;;1886055;74;21189;-76
2022/10/28 09:39:17;;;;;;;14.35;4.08;;;15.60;99.90;;;;;;1924430;73;21043;-76
2022/10/28 09:41:46;;;;;;;10.98;3.90;;;15.70;99.90;;;;;;1920720;73;21433;-75
2022/10/28 09:44:21;;;;;;;10.68;3.12;;;15.80;99.90;;;;;;1921764;73;21164;-74
2022/10/28 09:46:51;;;;;;;21.55;4.03;;;15.80;99.90;;;;;;1923232;73;21463;-74
2022/10/28 09:49:21;;;;;;;15.90;3.83;;;15.80;99.90;;;;;;1925306;73;21135;-74
2022/10/28 09:51:54;;;;;;;9.45;3.52;;;15.90;99.90;;;;;;1924282;74;21036;-73
2022/10/28 09:54:36;;;;;;;13.98;3.40;;;16.10;99.90;;;;;;1921542;73;21058;-76
2022/10/28 09:57:03;;;;;;;14.05;3.58;;;16.00;99.90;;;;;;1910719;73;21058;-75
2022/10/28 09:59:30;;;;;;;25.12;4.78;;;16.10;99.90;;;;;;1916799;74;21519;-73
2022/10/28 10:01:57;;;;;;;21.17;4.20;;;16.40;99.90;;;;;;1934136;74;21035;-76
2022/10/28 10:04:26;;;;;;;19.32;4.40;;;16.60;99.90;;;;;;1913378;74;21483;-80
2022/10/28 10:07:05;;;;;;;15.30;4.30;;;16.80;99.90;;;;;;1926649;74;21140;-79
2022/10/28 10:09:33;;;;;;;11.63;4.45;;;16.60;99.90;;;;;;1912918;74;21523;-76
2022/10/28 10:12:08;;;;;;;11.60;4.08;;;16.90;99.90;;;;;;1923217;74;21463;-77
2022/10/28 10:14:42;;;;;;;18.00;4.90;;;17.00;99.90;;;;;;1934769;74;21070;-78
2022/10/28 10:17:16;;;;;;;12.00;4.00;;;16.90;99.90;;;;;;1916424;74;21070;-78
2022/10/28 10:20:12;;;;;;;13.80;3.60;;;17.20;99.90;;;;;;1912343;74;21131;-77
2022/10/28 10:22:43;;;;;;;11.12;3.70;;;17.30;99.90;;;;;;1927338;73;21425;-75
2022/10/28 10:25:20;;;;;;;12.00;3.40;;;17.20;99.90;;;;;;1924552;73;21425;-73
2022/10/28 10:28:01;;;;;;;14.25;4.50;;;17.30;99.90;;;;;;1912541;74;21526;-73
2022/10/28 10:30:41;;;;;;;10.98;3.42;;;17.40;99.90;;;;;;1924872;74;21141;-74
2022/10/28 10:33:11;;;;;;;6.92;3.50;;;17.50;99.90;;;;;;1921017;74;21049;-74
2022/10/28 10:35:39;;;;;;;16.55;3.90;;;17.70;99.90;;;;;;1918987;73;21073;-75
2022/10/28 10:38:06;;;;;;;8.58;3.40;;;18.00;99.90;;;;;;1944132;73;21059;-75
2022/10/28 10:40:35;;;;;;;10.18;3.20;;;18.20;99.90;;;;;;1923353;74;21597;-74
2022/10/28 10:43:32;;;;;;;8.60;3.35;;;18.10;99.90;;;;;;1932019;74;21120;-75
2022/10/28 10:46:16;;;;;;;11.73;3.50;;;18.30;99.90;;;;;;1924090;74;21058;-74
2022/10/28 10:48:44;;;;;;;13.03;3.45;;;18.50;99.90;;;;;;1922702;74;21132;-75
2022/10/28 10:51:17;;;;;;;13.05;3.12;;;18.40;99.90;;;;;;1927833;74;21531;-75
2022/10/28 10:53:49;;;;;;;20.68;4.08;;;18.30;99.90;;;;;;1929754;74;21135;-68
2022/10/28 10:56:26;;;;;;;12.07;3.47;;;18.50;99.90;;;;;;1923901;74;21136;-70
2022/10/28 10:58:54;;;;;;;8.90;3.37;;;18.50;99.90;;;;;;1926379;74;21079;-71
2022/10/28 11:01:26;;;;;;;7.85;3.50;;;18.50;99.90;;;;;;1916458;74;21047;-71
2022/10/28 11:04:02;;;;;;;14.20;3.70;;;18.40;99.90;;;;;;1932473;74;21195;-69
2022/10/28 11:06:31;;;;;;;13.72;4.30;;;18.30;99.90;;;;;;1912622;73;21054;-70
2022/10/28 11:09:01;;;;;;;11.73;4.47;;;18.30;99.90;;;;;;1911878;74;21474;-71
2022/10/28 11:11:37;;;;;;;9.83;3.20;;;18.40;99.90;;;;;;1918040;74;21079;-71
2022/10/28 11:14:07;;;;;;;9.33;3.58;;;18.50;99.90;;;;;;1928748;74;21065;-73
2022/10/28 11:16:49;;;;;;;9.85;3.67;;;18.50;99.90;;;;;;1932616;73;21456;-77
2022/10/28 11:19:23;;;;;;;9.03;3.30;;;18.50;99.90;;;;;;1929439;74;21067;-75
2022/10/28 11:22:00;;;;;;;15.25;3.37;;;18.70;99.90;;;;;;1920565;74;21176;-74
2022/10/28 11:24:36;;;;;;;14.58;3.40;;;18.70;99.90;;;;;;1928192;74;21026;-74
2022/10/28 11:27:16;;;;;;;6.83;2.80;;;19.00;99.90;;;;;;1924554;74;21054;-74
2022/10/28 11:29:44;;;;;;;10.38;4.00;;;19.40;99.90;;;;;;1927014;74;21111;-75
2022/10/28 11:32:33;;;;;;;10.38;3.25;;;19.50;99.90;;;;;;1921220;74;21036;-75
2022/10/28 11:35:27;;;;;;;15.50;2.85;;;19.40;99.90;;;;;;1872205;74;21113;-74
2022/10/28 11:38:17;;;;;;;9.78;3.45;;;19.40;99.90;;;;;;1929481;74;21027;-72
2022/10/28 11:41:03;;;;;;;10.35;3.00;;;19.20;99.90;;;;;;1912105;74;21123;-72
2022/10/28 11:43:53;;;;;;;7.65;2.72;;;19.30;99.90;;;;;;1927875;74;21120;-72
2022/10/28 11:46:45;;;;;;;15.58;2.72;;;19.60;99.90;;;;;;1921893;74;21063;-72
2022/10/28 11:49:47;;;;;;;6.28;2.65;;;19.50;99.90;;;;;;1908661;73;21050;-73
2022/10/28 11:52:29;;;;;;;9.60;2.80;;;19.60;99.90;;;;;;1932132;74;21066;-71
2022/10/28 11:55:19;;;;;;;8.93;2.47;;;19.40;99.90;;;;;;1929730;74;21484;-69
2022/10/28 11:57:50;;;;;;;11.40;3.08;;;19.50;99.90;;;;;;1928466;73;21451;-69
2022/10/28 12:00:48;;;;;;;8.53;3.00;;;19.70;99.90;;;;;;1919643;73;21156;-71
2022/10/28 12:03:33;;;;;;;12.65;2.77;;;20.10;99.90;;;;;;1926544;74;21023;-72
2022/10/28 12:06:18;;;;;;;14.38;3.55;;;20.60;99.90;;;;;;1936941;74;21059;-78
2022/10/28 12:09:13;;;;;;;11.43;2.80;;;20.90;99.90;;;;;;1926886;73;21141;-78
2022/10/28 12:12:00;;;;;;;11.33;2.80;;;20.60;99.90;;;;;;1923650;74;21059;-75
2022/10/28 12:14:40;;;;;;;8.08;2.83;;;20.30;99.90;;;;;;1927388;74;21854;-77
2022/10/28 12:17:25;;;;;;;15.97;2.87;;;20.10;99.90;;;;;;1933644;74;21108;-78
2022/10/28 12:19:56;;;;;;;8.65;2.58;;;20.20;99.90;;;;;;1936891;74;21466;-79
2022/10/28 12:22:46;;;;;;;7.67;2.67;;;20.10;99.90;;;;;;1934361;74;21031;-74
2022/10/28 12:25:16;;;;;;;12.05;2.70;;;20.10;99.90;;;;;;1922871;73;21123;-79
2022/10/28 12:27:45;;;;;;;11.48;2.50;;;20.30;99.90;;;;;;1930024;74;21067;-78
2022/10/28 12:30:23;;;;;;;11.60;2.67;;;20.40;99.90;;;;;;1920269;73;21057;-78
2022/10/28 12:32:52;;;;;;;18.82;3.10;;;20.50;99.90;;;;;;1921576;74;21495;-76
2022/10/28 12:35:25;;;;;;;15.10;3.72;;;20.90;99.90;;;;;;1923772;74;21199;-76
2022/10/28 12:38:02;;;;;;;10.25;3.22;;;21.30;99.90;;;;;;1920711;74;21195;-76
2022/10/28 12:40:46;;;;;;;10.72;3.17;;;21.90;99.90;;;;;;1935389;74;21040;-77
2022/10/28 12:43:23;;;;;;;16.75;3.02;;;22.00;99.90;;;;;;1930409;73;21194;-75
2022/10/28 12:45:53;;;;;;;14.63;2.58;;;22.20;99.90;;;;;;1927541;74;21059;-76
2022/10/28 12:48:31;;;;;;;10.40;2.75;;;22.30;99.90;;;;;;1929662;74;21470;-76
2022/10/28 12:51:05;;;;;;;10.70;2.83;;;22.30;99.90;;;;;;1921258;74;21432;-75
2022/10/28 12:53:44;;;;;;;9.48;2.52;;;22.90;99.90;;;;;;1927558;73;21509;-77
2022/10/28 12:56:31;;;;;;;12.03;2.40;;;23.60;99.90;;;;;;1915322;74;21404;-76
2022/10/28 12:59:04;;;;;;;12.80;2.58;;;23.60;99.90;;;;;;1910743;73;21030;-76
2022/10/28 13:01:31;;;;;;;7.72;2.50;;;23.50;99.90;;;;;;1919626;74;21453;-76
2022/10/28 13:03:59;;;;;;;7.53;2.30;;;23.60;99.90;;;;;;1921580;74;21460;-75
2022/10/28 13:07:01;;;;;;;14.65;2.83;;;23.60;99.90;;;;;;1929298;73;21067;-76
2022/10/28 13:10:00;;;;;;;10.00;2.02;;;23.80;99.90;;;;;;1930102;74;21070;-76